sensor_id;sensor_type;location;lat;lon;timestamp;P1;durP1;ratioP1;P2;durP2;ratioP2
13197;SDS011;6664;52.514;13.440;2023-02-28T00:00:05;2.30;;;1.60;;
13197;SDS011;6664;52.514;13.440;2023-02-28T00:02:58;2.40;;;2.00;;
13197;SDS011;6664;52.514;13.440;2023-02-28T00:05:44;1.80;;;1.50;;
13197;SDS011;6664;52.514;13.440;2023-02-28T00:08:29;1.80;;;1.70;;
13197;SDS011;6664;52.514;13.440;2023-02-28T00:11:15;1.97;;;1.87;;
13197;SDS011;6664;52.514;13.440;2023-02-28T00:14:02;3.27;;;1.20;;
13197;SDS011;6664;52.514;13.440;2023-02-28T00:16:47;6.30;;;1.80;;
13197;SDS011;6664;52.514;13.440;2023-02-28T00:19:33;2.30;;;1.80;;
13197;SDS011;6664;52.514;13.440;2023-02-28T00:22:19;1.17;;;1.13;;
13197;SDS011;6664;52.514;13.440;2023-02-28T00:25:06;2.07;;;1.93;;
13197;SDS011;6664;52.514;13.440;2023-02-28T00:27:53;3.07;;;1.83;;
13197;SDS011;6664;52.514;13.440;2023-02-28T00:30:38;4.83;;;1.93;;
13197;SDS011;6664;52.514;13.440;2023-02-28T00:33:27;2.03;;;1.83;;
13197;SDS011;6664;52.514;13.440;2023-02-28T00:36:16;1.97;;;1.70;;
13197;SDS011;6664;52.514;13.440;2023-02-28T00:39:01;1.47;;;1.37;;
13197;SDS011;6664;52.514;13.440;2023-02-28T00:41:47;3.63;;;1.70;;
13197;SDS011;6664;52.514;13.440;2023-02-28T00:44:33;2.27;;;1.30;;
13197;SDS011;6664;52.514;13.440;2023-02-28T00:47:19;2.33;;;1.97;;
13197;SDS011;6664;52.514;13.440;2023-02-28T00:50:05;2.67;;;1.77;;
13197;SDS011;6664;52.514;13.440;2023-02-28T00:52:51;1.87;;;1.70;;
13197;SDS011;6664;52.514;13.440;2023-02-28T00:55:37;2.80;;;1.70;;
13197;SDS011;6664;52.514;13.440;2023-02-28T00:58:22;3.30;;;1.80;;
13197;SDS011;6664;52.514;13.440;2023-02-28T01:01:08;4.67;;;2.00;;
13197;SDS011;6664;52.514;13.440;2023-02-28T01:03:56;2.80;;;2.30;;
13197;SDS011;6664;52.514;13.440;2023-02-28T01:06:42;4.07;;;2.37;;
13197;SDS011;6664;52.514;13.440;2023-02-28T01:09:27;3.50;;;1.27;;
13197;SDS011;6664;52.514;13.440;2023-02-28T01:12:18;2.40;;;1.83;;
13197;SDS011;6664;52.514;13.440;2023-02-28T01:15:06;3.47;;;1.40;;
13197;SDS011;6664;52.514;13.440;2023-02-28T01:17:52;1.90;;;1.80;;
13197;SDS011;6664;52.514;13.440;2023-02-28T01:20:37;3.63;;;1.70;;
13197;SDS011;6664;52.514;13.440;2023-02-28T01:23:23;2.87;;;1.83;;
13197;SDS011;6664;52.514;13.440;2023-02-28T01:26:13;2.20;;;2.00;;
13197;SDS011;6664;52.514;13.440;2023-02-28T01:29:03;2.80;;;1.97;;
13197;SDS011;6664;52.514;13.440;2023-02-28T01:31:49;4.27;;;2.07;;
13197;SDS011;6664;52.514;13.440;2023-02-28T01:34:35;1.90;;;1.63;;
13197;SDS011;6664;52.514;13.440;2023-02-28T01:37:22;2.80;;;2.00;;
13197;SDS011;6664;52.514;13.440;2023-02-28T01:40:09;4.77;;;2.43;;
13197;SDS011;6664;52.514;13.440;2023-02-28T01:42:55;2.60;;;2.20;;
13197;SDS011;6664;52.514;13.440;2023-02-28T01:45:41;3.13;;;1.80;;
13197;SDS011;6664;52.514;13.440;2023-02-28T01:48:31;4.50;;;2.53;;
13197;SDS011;6664;52.514;13.440;2023-02-28T01:51:26;5.20;;;2.60;;
13197;SDS011;6664;52.514;13.440;2023-02-28T01:54:31;4.93;;;2.20;;
13197;SDS011;6664;52.514;13.440;2023-02-28T01:57:21;5.43;;;1.93;;
13197;SDS011;6664;52.514;13.440;2023-02-28T02:00:16;4.63;;;2.40;;
13197;SDS011;6664;52.514;13.440;2023-02-28T02:03:06;2.60;;;2.40;;
13197;SDS011;6664;52.514;13.440;2023-02-28T02:05:58;1.93;;;1.63;;
13197;SDS011;6664;52.514;13.440;2023-02-28T02:08:44;2.40;;;2.00;;
13197;SDS011;6664;52.514;13.440;2023-02-28T02:11:29;2.93;;;1.97;;
13197;SDS011;6664;52.514;13.440;2023-02-28T02:17:14;3.57;;;2.50;;
13197;SDS011;6664;52.514;13.440;2023-02-28T02:39:15;3.50;;;1.97;;
13197;SDS011;6664;52.514;13.440;2023-02-28T02:42:13;4.37;;;2.77;;
13197;SDS011;6664;52.514;13.440;2023-02-28T02:45:16;3.40;;;2.10;;
13197;SDS011;6664;52.514;13.440;2023-02-28T02:48:21;3.07;;;2.73;;
13197;SDS011;6664;52.514;13.440;2023-02-28T02:51:18;2.60;;;2.40;;
13197;SDS011;6664;52.514;13.440;2023-02-28T02:54:17;4.33;;;2.63;;
13197;SDS011;6664;52.514;13.440;2023-02-28T02:57:15;3.07;;;2.77;;
13197;SDS011;6664;52.514;13.440;2023-02-28T03:00:08;8.43;;;3.00;;
13197;SDS011;6664;52.514;13.440;2023-02-28T03:02:55;6.13;;;2.40;;
13197;SDS011;6664;52.514;13.440;2023-02-28T03:05:48;4.00;;;2.50;;
13197;SDS011;6664;52.514;13.440;2023-02-28T03:08:35;6.33;;;2.87;;
13197;SDS011;6664;52.514;13.440;2023-02-28T03:11:24;5.27;;;2.80;;
13197;SDS011;6664;52.514;13.440;2023-02-28T03:17:21;3.90;;;2.97;;
13197;SDS011;6664;52.514;13.440;2023-02-28T03:23:18;3.47;;;2.50;;
13197;SDS011;6664;52.514;13.440;2023-02-28T03:26:07;3.10;;;2.13;;
13197;SDS011;6664;52.514;13.440;2023-02-28T03:29:05;6.20;;;2.20;;
13197;SDS011;6664;52.514;13.440;2023-02-28T03:32:03;3.70;;;3.03;;
13197;SDS011;6664;52.514;13.440;2023-02-28T03:34:53;3.63;;;2.90;;
13197;SDS011;6664;52.514;13.440;2023-02-28T03:37:50;8.97;;;3.20;;
13197;SDS011;6664;52.514;13.440;2023-02-28T03:40:50;6.10;;;3.20;;
13197;SDS011;6664;52.514;13.440;2023-02-28T03:43:41;3.40;;;2.70;;
13197;SDS011;6664;52.514;13.440;2023-02-28T03:46:34;3.40;;;2.30;;
13197;SDS011;6664;52.514;13.440;2023-02-28T03:49:24;6.53;;;3.00;;
13197;SDS011;6664;52.514;13.440;2023-02-28T03:52:16;5.93;;;3.10;;
13197;SDS011;6664;52.514;13.440;2023-02-28T03:55:07;5.50;;;2.97;;
13197;SDS011;6664;52.514;13.440;2023-02-28T03:58:01;7.30;;;3.30;;
13197;SDS011;6664;52.514;13.440;2023-02-28T04:00:57;3.20;;;2.43;;
13197;SDS011;6664;52.514;13.440;2023-02-28T04:03:53;1.90;;;1.80;;
13197;SDS011;6664;52.514;13.440;2023-02-28T04:06:41;5.40;;;3.27;;
13197;SDS011;6664;52.514;13.440;2023-02-28T04:09:30;2.73;;;2.30;;
13197;SDS011;6664;52.514;13.440;2023-02-28T04:12:16;4.37;;;2.70;;
13197;SDS011;6664;52.514;13.440;2023-02-28T04:15:01;4.87;;;3.03;;
13197;SDS011;6664;52.514;13.440;2023-02-28T04:17:47;6.40;;;2.93;;
13197;SDS011;6664;52.514;13.440;2023-02-28T04:20:32;4.40;;;2.87;;
13197;SDS011;6664;52.514;13.440;2023-02-28T04:23:18;5.50;;;3.17;;
13197;SDS011;6664;52.514;13.440;2023-02-28T04:26:08;6.80;;;3.20;;
13197;SDS011;6664;52.514;13.440;2023-02-28T04:28:54;5.97;;;2.90;;
13197;SDS011;6664;52.514;13.440;2023-02-28T04:31:43;4.80;;;2.87;;
13197;SDS011;6664;52.514;13.440;2023-02-28T04:34:31;3.40;;;2.67;;
13197;SDS011;6664;52.514;13.440;2023-02-28T04:37:17;3.13;;;2.83;;
13197;SDS011;6664;52.514;13.440;2023-02-28T04:40:03;3.83;;;3.50;;
13197;SDS011;6664;52.514;13.440;2023-02-28T04:42:52;11.60;;;2.70;;
13197;SDS011;6664;52.514;13.440;2023-02-28T04:45:37;7.43;;;3.23;;
13197;SDS011;6664;52.514;13.440;2023-02-28T04:48:25;4.40;;;2.50;;
13197;SDS011;6664;52.514;13.440;2023-02-28T04:51:14;5.47;;;3.27;;
13197;SDS011;6664;52.514;13.440;2023-02-28T04:54:03;5.43;;;3.47;;
13197;SDS011;6664;52.514;13.440;2023-02-28T04:56:51;3.13;;;2.87;;
13197;SDS011;6664;52.514;13.440;2023-02-28T04:59:37;6.50;;;3.70;;
13197;SDS011;6664;52.514;13.440;2023-02-28T05:02:23;7.33;;;3.17;;
13197;SDS011;6664;52.514;13.440;2023-02-28T05:05:08;12.60;;;3.67;;
13197;SDS011;6664;52.514;13.440;2023-02-28T05:07:56;4.00;;;3.10;;
13197;SDS011;6664;52.514;13.440;2023-02-28T05:10:42;4.07;;;2.60;;
13197;SDS011;6664;52.514;13.440;2023-02-28T05:13:29;4.73;;;2.43;;
13197;SDS011;6664;52.514;13.440;2023-02-28T05:16:17;3.63;;;3.03;;
13197;SDS011;6664;52.514;13.440;2023-02-28T05:19:08;4.57;;;2.70;;
13197;SDS011;6664;52.514;13.440;2023-02-28T05:21:55;3.70;;;2.97;;
13197;SDS011;6664;52.514;13.440;2023-02-28T05:24:40;3.07;;;2.77;;
13197;SDS011;6664;52.514;13.440;2023-02-28T05:27:27;5.10;;;3.10;;
13197;SDS011;6664;52.514;13.440;2023-02-28T05:30:13;3.20;;;3.00;;
13197;SDS011;6664;52.514;13.440;2023-02-28T05:32:59;2.90;;;2.63;;
13197;SDS011;6664;52.514;13.440;2023-02-28T05:35:47;2.77;;;2.53;;
13197;SDS011;6664;52.514;13.440;2023-02-28T05:38:32;4.00;;;2.87;;
13197;SDS011;6664;52.514;13.440;2023-02-28T05:41:20;5.90;;;3.40;;
13197;SDS011;6664;52.514;13.440;2023-02-28T05:44:09;5.10;;;3.10;;
13197;SDS011;6664;52.514;13.440;2023-02-28T05:46:57;6.60;;;3.80;;
13197;SDS011;6664;52.514;13.440;2023-02-28T05:49:44;9.80;;;3.70;;
13197;SDS011;6664;52.514;13.440;2023-02-28T05:52:30;6.33;;;3.53;;
13197;SDS011;6664;52.514;13.440;2023-02-28T05:55:15;4.57;;;3.10;;
13197;SDS011;6664;52.514;13.440;2023-02-28T05:58:00;9.57;;;4.43;;
13197;SDS011;6664;52.514;13.440;2023-02-28T06:00:48;10.17;;;3.83;;
13197;SDS011;6664;52.514;13.440;2023-02-28T06:03:34;4.13;;;3.40;;
13197;SDS011;6664;52.514;13.440;2023-02-28T06:06:19;6.00;;;3.63;;
13197;SDS011;6664;52.514;13.440;2023-02-28T06:09:05;5.87;;;3.67;;
13197;SDS011;6664;52.514;13.440;2023-02-28T06:11:52;4.00;;;3.20;;
13197;SDS011;6664;52.514;13.440;2023-02-28T06:14:38;6.70;;;3.67;;
13197;SDS011;6664;52.514;13.440;2023-02-28T06:17:24;8.33;;;4.10;;
13197;SDS011;6664;52.514;13.440;2023-02-28T06:20:10;4.60;;;3.57;;
13197;SDS011;6664;52.514;13.440;2023-02-28T06:22:57;7.80;;;3.47;;
13197;SDS011;6664;52.514;13.440;2023-02-28T06:25:48;5.20;;;3.90;;
13197;SDS011;6664;52.514;13.440;2023-02-28T06:28:34;7.87;;;3.77;;
13197;SDS011;6664;52.514;13.440;2023-02-28T06:31:19;10.50;;;3.60;;
13197;SDS011;6664;52.514;13.440;2023-02-28T06:34:06;8.20;;;3.87;;
13197;SDS011;6664;52.514;13.440;2023-02-28T06:36:52;6.13;;;3.70;;
13197;SDS011;6664;52.514;13.440;2023-02-28T06:39:38;3.60;;;3.30;;
13197;SDS011;6664;52.514;13.440;2023-02-28T06:42:24;3.93;;;3.17;;
13197;SDS011;6664;52.514;13.440;2023-02-28T06:45:13;5.10;;;3.57;;
13197;SDS011;6664;52.514;13.440;2023-02-28T06:47:59;4.53;;;3.60;;
13197;SDS011;6664;52.514;13.440;2023-02-28T06:50:47;3.43;;;2.87;;
13197;SDS011;6664;52.514;13.440;2023-02-28T06:53:33;9.53;;;4.70;;
13197;SDS011;6664;52.514;13.440;2023-02-28T06:56:19;6.57;;;3.37;;
13197;SDS011;6664;52.514;13.440;2023-02-28T06:59:06;5.10;;;3.17;;
13197;SDS011;6664;52.514;13.440;2023-02-28T07:01:51;4.97;;;3.50;;
13197;SDS011;6664;52.514;13.440;2023-02-28T07:04:37;3.13;;;2.77;;
13197;SDS011;6664;52.514;13.440;2023-02-28T07:07:25;5.60;;;3.07;;
13197;SDS011;6664;52.514;13.440;2023-02-28T07:10:11;6.57;;;3.53;;
13197;SDS011;6664;52.514;13.440;2023-02-28T07:13:04;6.20;;;4.07;;
13197;SDS011;6664;52.514;13.440;2023-02-28T07:15:58;4.17;;;3.03;;
13197;SDS011;6664;52.514;13.440;2023-02-28T07:18:45;5.27;;;3.10;;
13197;SDS011;6664;52.514;13.440;2023-02-28T07:21:31;11.47;;;3.60;;
13197;SDS011;6664;52.514;13.440;2023-02-28T07:24:16;7.17;;;4.07;;
13197;SDS011;6664;52.514;13.440;2023-02-28T07:27:02;3.47;;;3.17;;
13197;SDS011;6664;52.514;13.440;2023-02-28T07:29:48;14.87;;;3.73;;
13197;SDS011;6664;52.514;13.440;2023-02-28T07:32:39;5.60;;;3.50;;
13197;SDS011;6664;52.514;13.440;2023-02-28T07:35:28;3.93;;;3.47;;
13197;SDS011;6664;52.514;13.440;2023-02-28T07:38:14;4.53;;;2.83;;
13197;SDS011;6664;52.514;13.440;2023-02-28T07:41:00;10.40;;;3.47;;
13197;SDS011;6664;52.514;13.440;2023-02-28T07:43:49;7.00;;;2.93;;
13197;SDS011;6664;52.514;13.440;2023-02-28T07:46:34;6.47;;;3.07;;
13197;SDS011;6664;52.514;13.440;2023-02-28T07:49:21;5.70;;;2.97;;
13197;SDS011;6664;52.514;13.440;2023-02-28T07:52:08;5.90;;;3.43;;
13197;SDS011;6664;52.514;13.440;2023-02-28T07:54:56;6.77;;;2.80;;
13197;SDS011;6664;52.514;13.440;2023-02-28T07:57:42;4.00;;;2.93;;
13197;SDS011;6664;52.514;13.440;2023-02-28T08:00:29;5.80;;;3.03;;
13197;SDS011;6664;52.514;13.440;2023-02-28T08:03:18;6.73;;;3.53;;
13197;SDS011;6664;52.514;13.440;2023-02-28T08:06:09;10.47;;;2.87;;
13197;SDS011;6664;52.514;13.440;2023-02-28T08:09:02;3.90;;;1.90;;
13197;SDS011;6664;52.514;13.440;2023-02-28T08:11:48;2.83;;;1.73;;
13197;SDS011;6664;52.514;13.440;2023-02-28T08:14:34;2.60;;;1.77;;
13197;SDS011;6664;52.514;13.440;2023-02-28T08:17:19;7.73;;;1.63;;
13197;SDS011;6664;52.514;13.440;2023-02-28T08:20:05;1.70;;;1.60;;
13197;SDS011;6664;52.514;13.440;2023-02-28T08:22:51;2.20;;;1.53;;
13197;SDS011;6664;52.514;13.440;2023-02-28T08:25:39;1.67;;;1.40;;
13197;SDS011;6664;52.514;13.440;2023-02-28T08:28:25;1.73;;;1.63;;
13197;SDS011;6664;52.514;13.440;2023-02-28T08:31:12;1.63;;;1.50;;
13197;SDS011;6664;52.514;13.440;2023-02-28T08:33:59;2.20;;;1.30;;
13197;SDS011;6664;52.514;13.440;2023-02-28T08:36:47;1.40;;;1.30;;
13197;SDS011;6664;52.514;13.440;2023-02-28T08:39:35;2.93;;;1.27;;
13197;SDS011;6664;52.514;13.440;2023-02-28T08:42:21;2.17;;;1.80;;
13197;SDS011;6664;52.514;13.440;2023-02-28T08:45:07;1.73;;;1.30;;
13197;SDS011;6664;52.514;13.440;2023-02-28T08:47:54;3.37;;;1.53;;
13197;SDS011;6664;52.514;13.440;2023-02-28T08:50:42;1.83;;;1.53;;
13197;SDS011;6664;52.514;13.440;2023-02-28T08:53:32;2.10;;;1.60;;
13197;SDS011;6664;52.514;13.440;2023-02-28T08:56:18;1.30;;;0.93;;
13197;SDS011;6664;52.514;13.440;2023-02-28T08:59:04;2.53;;;1.53;;
13197;SDS011;6664;52.514;13.440;2023-02-28T09:01:50;0.90;;;0.90;;
13197;SDS011;6664;52.514;13.440;2023-02-28T09:04:37;1.10;;;1.00;;
13197;SDS011;6664;52.514;13.440;2023-02-28T09:07:23;2.10;;;1.00;;
13197;SDS011;6664;52.514;13.440;2023-02-28T09:10:10;1.77;;;1.00;;
13197;SDS011;6664;52.514;13.440;2023-02-28T09:12:57;2.50;;;1.17;;
13197;SDS011;6664;52.514;13.440;2023-02-28T09:15:43;1.73;;;1.20;;
13197;SDS011;6664;52.514;13.440;2023-02-28T09:18:31;3.70;;;1.50;;
13197;SDS011;6664;52.514;13.440;2023-02-28T09:21:19;1.20;;;1.20;;
13197;SDS011;6664;52.514;13.440;2023-02-28T09:24:05;1.40;;;1.30;;
13197;SDS011;6664;52.514;13.440;2023-02-28T09:26:51;1.00;;;1.00;;
13197;SDS011;6664;52.514;13.440;2023-02-28T09:29:50;2.07;;;1.20;;
13197;SDS011;6664;52.514;13.440;2023-02-28T09:32:36;1.30;;;1.20;;
13197;SDS011;6664;52.514;13.440;2023-02-28T09:35:22;1.47;;;1.07;;
13197;SDS011;6664;52.514;13.440;2023-02-28T09:38:09;3.70;;;1.33;;
13197;SDS011;6664;52.514;13.440;2023-02-28T09:41:00;1.20;;;1.10;;
13197;SDS011;6664;52.514;13.440;2023-02-28T09:43:59;1.30;;;1.20;;
13197;SDS011;6664;52.514;13.440;2023-02-28T09:46:48;1.10;;;1.10;;
13197;SDS011;6664;52.514;13.440;2023-02-28T09:49:40;2.40;;;1.00;;
13197;SDS011;6664;52.514;13.440;2023-02-28T09:52:31;1.00;;;0.97;;
13197;SDS011;6664;52.514;13.440;2023-02-28T09:55:30;1.03;;;0.80;;
13197;SDS011;6664;52.514;13.440;2023-02-28T09:58:36;1.20;;;1.10;;
13197;SDS011;6664;52.514;13.440;2023-02-28T10:01:49;1.40;;;1.23;;
13197;SDS011;6664;52.514;13.440;2023-02-28T10:04:40;1.60;;;1.50;;
13197;SDS011;6664;52.514;13.440;2023-02-28T10:07:45;1.50;;;1.40;;
13197;SDS011;6664;52.514;13.440;2023-02-28T10:10:57;1.00;;;1.00;;
13197;SDS011;6664;52.514;13.440;2023-02-28T10:16:43;1.27;;;1.20;;
13197;SDS011;6664;52.514;13.440;2023-02-28T10:22:49;1.33;;;1.23;;
13197;SDS011;6664;52.514;13.440;2023-02-28T10:25:41;1.30;;;1.20;;
13197;SDS011;6664;52.514;13.440;2023-02-28T10:28:32;1.20;;;1.10;;
13197;SDS011;6664;52.514;13.440;2023-02-28T10:31:20;1.60;;;1.50;;
13197;SDS011;6664;52.514;13.440;2023-02-28T10:34:08;1.73;;;1.13;;
13197;SDS011;6664;52.514;13.440;2023-02-28T10:36:57;1.57;;;0.90;;
13197;SDS011;6664;52.514;13.440;2023-02-28T10:39:54;2.00;;;1.00;;
13197;SDS011;6664;52.514;13.440;2023-02-28T10:42:40;2.57;;;1.43;;
13197;SDS011;6664;52.514;13.440;2023-02-28T10:45:26;1.30;;;1.07;;
13197;SDS011;6664;52.514;13.440;2023-02-28T10:51:02;2.30;;;1.10;;
13197;SDS011;6664;52.514;13.440;2023-02-28T10:53:54;1.20;;;1.10;;
13197;SDS011;6664;52.514;13.440;2023-02-28T10:56:54;1.37;;;1.20;;
13197;SDS011;6664;52.514;13.440;2023-02-28T11:00:32;1.23;;;1.13;;
13197;SDS011;6664;52.514;13.440;2023-02-28T11:09:48;1.50;;;1.13;;
13197;SDS011;6664;52.514;13.440;2023-02-28T11:12:30;1.10;;;1.00;;
13197;SDS011;6664;52.514;13.440;2023-02-28T11:15:36;2.73;;;1.23;;
13197;SDS011;6664;52.514;13.440;2023-02-28T11:18:37;1.37;;;1.27;;
13197;SDS011;6664;52.514;13.440;2023-02-28T11:21:28;1.73;;;1.30;;
13197;SDS011;6664;52.514;13.440;2023-02-28T11:24:52;1.23;;;1.10;;
13197;SDS011;6664;52.514;13.440;2023-02-28T11:33:30;1.50;;;1.30;;
13197;SDS011;6664;52.514;13.440;2023-02-28T11:36:22;2.30;;;1.53;;
13197;SDS011;6664;52.514;13.440;2023-02-28T11:39:12;2.80;;;1.43;;
13197;SDS011;6664;52.514;13.440;2023-02-28T11:45:34;2.10;;;1.57;;
13197;SDS011;6664;52.514;13.440;2023-02-28T11:51:53;3.00;;;1.90;;
13197;SDS011;6664;52.514;13.440;2023-02-28T12:01:28;1.50;;;1.40;;
13197;SDS011;6664;52.514;13.440;2023-02-28T12:13:40;2.03;;;1.43;;
13197;SDS011;6664;52.514;13.440;2023-02-28T12:16:55;2.83;;;1.80;;
13197;SDS011;6664;52.514;13.440;2023-02-28T12:29:20;1.67;;;1.33;;
13197;SDS011;6664;52.514;13.440;2023-02-28T12:38:27;1.30;;;1.20;;
13197;SDS011;6664;52.514;13.440;2023-02-28T12:41:44;1.20;;;1.07;;
13197;SDS011;6664;52.514;13.440;2023-02-28T12:47:40;1.97;;;1.87;;
13197;SDS011;6664;52.514;13.440;2023-02-28T12:50:28;2.73;;;1.70;;
13197;SDS011;6664;52.514;13.440;2023-02-28T12:53:31;1.30;;;1.20;;
13197;SDS011;6664;52.514;13.440;2023-02-28T12:56:30;3.87;;;1.77;;
13197;SDS011;6664;52.514;13.440;2023-02-28T12:59:27;1.43;;;1.30;;
13197;SDS011;6664;52.514;13.440;2023-02-28T13:09:04;2.33;;;1.57;;
13197;SDS011;6664;52.514;13.440;2023-02-28T13:12:00;1.93;;;1.40;;
13197;SDS011;6664;52.514;13.440;2023-02-28T13:14:49;1.80;;;1.33;;
13197;SDS011;6664;52.514;13.440;2023-02-28T13:17:47;5.50;;;1.97;;
13197;SDS011;6664;52.514;13.440;2023-02-28T13:20:46;1.60;;;1.50;;
13197;SDS011;6664;52.514;13.440;2023-02-28T13:35:14;2.53;;;1.67;;
13197;SDS011;6664;52.514;13.440;2023-02-28T13:38:25;5.43;;;1.83;;
13197;SDS011;6664;52.514;13.440;2023-02-28T13:44:18;6.20;;;1.87;;
13197;SDS011;6664;52.514;13.440;2023-02-28T13:56:21;1.50;;;1.40;;
13197;SDS011;6664;52.514;13.440;2023-02-28T13:59:24;12.37;;;1.70;;
13197;SDS011;6664;52.514;13.440;2023-02-28T14:05:32;2.67;;;1.60;;
13197;SDS011;6664;52.514;13.440;2023-02-28T14:08:22;1.60;;;1.50;;
13197;SDS011;6664;52.514;13.440;2023-02-28T14:11:09;1.53;;;1.43;;
13197;SDS011;6664;52.514;13.440;2023-02-28T14:14:52;2.90;;;1.70;;
13197;SDS011;6664;52.514;13.440;2023-02-28T14:17:19;1.60;;;1.50;;
13197;SDS011;6664;52.514;13.440;2023-02-28T14:20:04;4.30;;;1.70;;
13197;SDS011;6664;52.514;13.440;2023-02-28T14:22:54;1.63;;;1.53;;
13197;SDS011;6664;52.514;13.440;2023-02-28T14:31:58;2.10;;;1.90;;
13197;SDS011;6664;52.514;13.440;2023-02-28T14:34:57;6.97;;;2.50;;
13197;SDS011;6664;52.514;13.440;2023-02-28T14:37:47;2.43;;;2.00;;
13197;SDS011;6664;52.514;13.440;2023-02-28T14:40:35;2.33;;;2.00;;
13197;SDS011;6664;52.514;13.440;2023-02-28T14:43:23;3.00;;;2.00;;
13197;SDS011;6664;52.514;13.440;2023-02-28T14:46:13;3.03;;;1.87;;
13197;SDS011;6664;52.514;13.440;2023-02-28T14:48:59;1.90;;;1.80;;
13197;SDS011;6664;52.514;13.440;2023-02-28T14:51:45;2.13;;;1.90;;
13197;SDS011;6664;52.514;13.440;2023-02-28T14:54:31;2.50;;;1.70;;
13197;SDS011;6664;52.514;13.440;2023-02-28T14:57:21;1.77;;;1.67;;
13197;SDS011;6664;52.514;13.440;2023-02-28T15:00:20;1.90;;;1.70;;
13197;SDS011;6664;52.514;13.440;2023-02-28T15:06:24;1.97;;;1.77;;
13197;SDS011;6664;52.514;13.440;2023-02-28T15:09:18;1.90;;;1.47;;
13197;SDS011;6664;52.514;13.440;2023-02-28T15:12:04;3.17;;;1.47;;
13197;SDS011;6664;52.514;13.440;2023-02-28T15:14:50;2.10;;;1.90;;
13197;SDS011;6664;52.514;13.440;2023-02-28T15:17:40;1.83;;;1.73;;
13197;SDS011;6664;52.514;13.440;2023-02-28T15:20:34;2.50;;;1.97;;
13197;SDS011;6664;52.514;13.440;2023-02-28T15:23:23;2.70;;;1.80;;
13197;SDS011;6664;52.514;13.440;2023-02-28T15:26:12;3.57;;;2.00;;
13197;SDS011;6664;52.514;13.440;2023-02-28T15:29:19;3.67;;;2.03;;
13197;SDS011;6664;52.514;13.440;2023-02-28T15:32:07;3.10;;;2.10;;
13197;SDS011;6664;52.514;13.440;2023-02-28T15:35:46;2.10;;;1.70;;
13197;SDS011;6664;52.514;13.440;2023-02-28T15:38:22;3.77;;;2.57;;
13197;SDS011;6664;52.514;13.440;2023-02-28T15:41:28;4.10;;;2.10;;
13197;SDS011;6664;52.514;13.440;2023-02-28T15:47:17;2.50;;;2.00;;
13197;SDS011;6664;52.514;13.440;2023-02-28T15:50:10;1.67;;;1.57;;
13197;SDS011;6664;52.514;13.440;2023-02-28T15:52:58;1.50;;;1.37;;
13197;SDS011;6664;52.514;13.440;2023-02-28T15:55:55;1.70;;;1.60;;
13197;SDS011;6664;52.514;13.440;2023-02-28T15:58:44;3.40;;;2.00;;
13197;SDS011;6664;52.514;13.440;2023-02-28T16:01:38;2.43;;;1.53;;
13197;SDS011;6664;52.514;13.440;2023-02-28T16:04:24;2.77;;;1.90;;
13197;SDS011;6664;52.514;13.440;2023-02-28T16:07:17;3.67;;;1.80;;
13197;SDS011;6664;52.514;13.440;2023-02-28T16:10:06;4.13;;;1.80;;
13197;SDS011;6664;52.514;13.440;2023-02-28T16:12:54;2.30;;;1.70;;
13197;SDS011;6664;52.514;13.440;2023-02-28T16:15:43;3.13;;;1.57;;
13197;SDS011;6664;52.514;13.440;2023-02-28T16:18:34;2.27;;;2.07;;
13197;SDS011;6664;52.514;13.440;2023-02-28T16:21:19;1.80;;;1.67;;
13197;SDS011;6664;52.514;13.440;2023-02-28T16:24:06;1.70;;;1.40;;
13197;SDS011;6664;52.514;13.440;2023-02-28T16:26:54;3.03;;;2.13;;
13197;SDS011;6664;52.514;13.440;2023-02-28T16:29:44;3.33;;;1.97;;
13197;SDS011;6664;52.514;13.440;2023-02-28T16:32:30;3.97;;;2.37;;
13197;SDS011;6664;52.514;13.440;2023-02-28T16:35:19;1.87;;;1.53;;
13197;SDS011;6664;52.514;13.440;2023-02-28T16:38:08;5.03;;;2.30;;
13197;SDS011;6664;52.514;13.440;2023-02-28T16:40:55;2.00;;;1.90;;
13197;SDS011;6664;52.514;13.440;2023-02-28T16:43:43;3.37;;;2.10;;
13197;SDS011;6664;52.514;13.440;2023-02-28T16:46:30;3.90;;;1.90;;
13197;SDS011;6664;52.514;13.440;2023-02-28T16:49:19;1.60;;;1.30;;
13197;SDS011;6664;52.514;13.440;2023-02-28T16:52:06;2.00;;;1.70;;
13197;SDS011;6664;52.514;13.440;2023-02-28T16:54:51;2.40;;;1.87;;
13197;SDS011;6664;52.514;13.440;2023-02-28T16:57:39;1.57;;;1.43;;
13197;SDS011;6664;52.514;13.440;2023-02-28T17:00:25;1.67;;;1.57;;
13197;SDS011;6664;52.514;13.440;2023-02-28T17:03:19;2.37;;;2.17;;
13197;SDS011;6664;52.514;13.440;2023-02-28T17:06:20;5.73;;;2.57;;
13197;SDS011;6664;52.514;13.440;2023-02-28T17:09:24;2.17;;;1.97;;
13197;SDS011;6664;52.514;13.440;2023-02-28T17:12:25;2.13;;;1.70;;
13197;SDS011;6664;52.514;13.440;2023-02-28T17:15:11;3.50;;;2.10;;
13197;SDS011;6664;52.514;13.440;2023-02-28T17:17:59;5.77;;;1.77;;
13197;SDS011;6664;52.514;13.440;2023-02-28T17:20:47;3.13;;;2.10;;
13197;SDS011;6664;52.514;13.440;2023-02-28T17:23:35;3.60;;;2.30;;
13197;SDS011;6664;52.514;13.440;2023-02-28T17:26:20;1.73;;;1.50;;
13197;SDS011;6664;52.514;13.440;2023-02-28T17:29:19;4.03;;;1.50;;
13197;SDS011;6664;52.514;13.440;2023-02-28T17:32:05;2.87;;;2.03;;
13197;SDS011;6664;52.514;13.440;2023-02-28T17:35:01;3.20;;;2.23;;
13197;SDS011;6664;52.514;13.440;2023-02-28T17:37:47;2.10;;;1.93;;
13197;SDS011;6664;52.514;13.440;2023-02-28T17:40:33;2.80;;;1.90;;
13197;SDS011;6664;52.514;13.440;2023-02-28T17:43:18;3.00;;;1.57;;
13197;SDS011;6664;52.514;13.440;2023-02-28T17:46:08;2.23;;;1.93;;
13197;SDS011;6664;52.514;13.440;2023-02-28T17:49:05;2.83;;;2.03;;
13197;SDS011;6664;52.514;13.440;2023-02-28T17:51:51;4.67;;;2.33;;
13197;SDS011;6664;52.514;13.440;2023-02-28T17:54:36;2.10;;;1.90;;
13197;SDS011;6664;52.514;13.440;2023-02-28T17:57:21;4.57;;;2.53;;
13197;SDS011;6664;52.514;13.440;2023-02-28T18:00:07;4.73;;;2.40;;
13197;SDS011;6664;52.514;13.440;2023-02-28T18:02:53;5.07;;;2.17;;
13197;SDS011;6664;52.514;13.440;2023-02-28T18:05:41;2.33;;;2.10;;
13197;SDS011;6664;52.514;13.440;2023-02-28T18:08:27;3.10;;;2.27;;
13197;SDS011;6664;52.514;13.440;2023-02-28T18:11:15;6.93;;;2.77;;
13197;SDS011;6664;52.514;13.440;2023-02-28T18:14:06;10.37;;;2.70;;
13197;SDS011;6664;52.514;13.440;2023-02-28T18:16:54;4.27;;;2.83;;
13197;SDS011;6664;52.514;13.440;2023-02-28T18:19:40;4.80;;;2.50;;
13197;SDS011;6664;52.514;13.440;2023-02-28T18:22:25;4.90;;;2.10;;
13197;SDS011;6664;52.514;13.440;2023-02-28T18:25:11;3.10;;;1.70;;
13197;SDS011;6664;52.514;13.440;2023-02-28T18:28:01;3.97;;;2.70;;
13197;SDS011;6664;52.514;13.440;2023-02-28T18:30:48;3.90;;;2.47;;
13197;SDS011;6664;52.514;13.440;2023-02-28T18:33:34;6.07;;;3.67;;
13197;SDS011;6664;52.514;13.440;2023-02-28T18:36:22;5.97;;;2.53;;
13197;SDS011;6664;52.514;13.440;2023-02-28T18:39:08;3.07;;;2.77;;
13197;SDS011;6664;52.514;13.440;2023-02-28T18:41:56;3.23;;;2.53;;
13197;SDS011;6664;52.514;13.440;2023-02-28T18:44:42;3.77;;;2.90;;
13197;SDS011;6664;52.514;13.440;2023-02-28T18:47:27;2.73;;;2.47;;
13197;SDS011;6664;52.514;13.440;2023-02-28T18:50:13;4.93;;;3.30;;
13197;SDS011;6664;52.514;13.440;2023-02-28T18:52:58;3.50;;;3.20;;
13197;SDS011;6664;52.514;13.440;2023-02-28T18:55:49;5.33;;;3.37;;
13197;SDS011;6664;52.514;13.440;2023-02-28T18:58:34;6.40;;;3.40;;
13197;SDS011;6664;52.514;13.440;2023-02-28T19:01:21;5.90;;;2.87;;
13197;SDS011;6664;52.514;13.440;2023-02-28T19:04:14;6.37;;;3.60;;
13197;SDS011;6664;52.514;13.440;2023-02-28T19:06:59;6.27;;;3.50;;
13197;SDS011;6664;52.514;13.440;2023-02-28T19:09:46;5.77;;;4.00;;
13197;SDS011;6664;52.514;13.440;2023-02-28T19:12:33;5.53;;;3.30;;
13197;SDS011;6664;52.514;13.440;2023-02-28T19:15:22;7.80;;;4.00;;
13197;SDS011;6664;52.514;13.440;2023-02-28T19:18:07;3.47;;;3.10;;
13197;SDS011;6664;52.514;13.440;2023-02-28T19:20:55;7.43;;;3.40;;